createdAt,value
2017-08-01T00:00:25.108Z,506
2017-08-01T00:01:32.594Z,508
2017-08-01T00:02:40.388Z,510
2017-08-01T00:03:47.868Z,511
2017-08-01T00:04:55.346Z,511
2017-08-01T00:06:02.497Z,512
2017-08-01T00:07:09.652Z,512
2017-08-01T00:08:17.433Z,512
2017-08-01T00:09:24.924Z,512
2017-08-01T00:10:32.407Z,513
2017-08-01T00:11:39.892Z,507
2017-08-01T00:12:47.379Z,509
2017-08-01T00:13:54.839Z,510
2017-08-01T00:15:02.324Z,511
2017-08-01T00:16:09.826Z,512
2017-08-01T00:17:17.310Z,513
2017-08-01T00:18:24.792Z,514
2017-08-01T00:19:32.579Z,514
2017-08-01T00:20:40.058Z,497
2017-08-01T00:21:47.542Z,498
2017-08-01T00:22:55.046Z,462
2017-08-01T00:24:02.535Z,450
2017-08-01T00:25:10.326Z,423
2017-08-01T00:26:17.806Z,415
2017-08-01T00:27:25.286Z,442
2017-08-01T00:28:32.770Z,460
2017-08-01T00:29:39.926Z,450
2017-08-01T00:30:47.398Z,450
2017-08-01T00:31:54.879Z,437
2017-08-01T00:33:02.362Z,442
2017-08-01T00:34:09.850Z,436
2017-08-01T00:35:17.350Z,429
2017-08-01T00:36:24.799Z,430
2017-08-01T00:37:32.280Z,431
2017-08-01T00:38:39.435Z,435
2017-08-01T00:39:46.920Z,440
2017-08-01T00:40:54.400Z,445
2017-08-01T00:42:02.188Z,446
2017-08-01T00:43:09.680Z,447
2017-08-01T00:44:17.155Z,445
2017-08-01T00:45:24.653Z,440
2017-08-01T00:46:32.150Z,434
2017-08-01T00:47:39.936Z,431
2017-08-01T00:48:47.418Z,430
2017-08-01T00:49:54.900Z,429
2017-08-01T00:51:02.377Z,428
2017-08-01T00:52:09.878Z,427
2017-08-01T00:53:17.659Z,426
2017-08-01T00:54:25.145Z,427
2017-08-01T00:55:32.635Z,427
2017-08-01T00:56:40.112Z,426
2017-08-01T00:57:47.602Z,426
2017-08-01T00:58:55.373Z,425
2017-08-01T01:00:02.527Z,426
2017-08-01T01:01:10.002Z,426
2017-08-01T01:02:17.486Z,425
2017-08-01T01:03:24.969Z,426
2017-08-01T01:04:32.748Z,426
2017-08-01T01:05:40.231Z,425
2017-08-01T01:06:47.706Z,425
2017-08-01T01:07:55.191Z,425
2017-08-01T01:09:02.347Z,425
2017-08-01T01:10:10.126Z,424
2017-08-01T01:11:17.611Z,423
2017-08-01T01:12:25.301Z,424
2017-08-01T01:13:32.801Z,423
2017-08-01T01:14:40.278Z,424
2017-08-01T01:15:48.059Z,422
2017-08-01T01:16:55.543Z,424
2017-08-01T01:18:03.019Z,425
2017-08-01T01:19:10.499Z,426
2017-08-01T01:20:17.978Z,426
2017-08-01T01:21:25.769Z,427
2017-08-01T01:22:33.252Z,427
2017-08-01T01:23:40.740Z,425
2017-08-01T01:24:48.218Z,425
2017-08-01T01:25:55.367Z,424
2017-08-01T01:27:03.149Z,423
2017-08-01T01:28:10.303Z,424
2017-08-01T01:29:17.783Z,424
2017-08-01T01:30:25.279Z,423
2017-08-01T01:31:32.761Z,423
2017-08-01T01:32:40.540Z,421
2017-08-01T01:33:48.020Z,421
2017-08-01T01:34:55.499Z,421
2017-08-01T01:36:02.981Z,421
2017-08-01T01:37:10.474Z,422
2017-08-01T01:38:18.256Z,422
2017-08-01T01:39:25.734Z,423
2017-08-01T01:40:32.887Z,422
2017-08-01T01:41:40.369Z,423
2017-08-01T01:42:47.848Z,422
2017-08-01T01:43:55.629Z,424
2017-08-01T01:45:03.117Z,423
2017-08-01T01:46:10.599Z,423
2017-08-01T01:47:18.105Z,424
2017-08-01T01:48:25.588Z,422
2017-08-01T01:49:33.384Z,423
2017-08-01T01:50:40.542Z,423
2017-08-01T01:51:48.024Z,426
2017-08-01T01:52:55.511Z,426
2017-08-01T01:54:02.659Z,425
2017-08-01T01:55:10.118Z,425
2017-08-01T01:56:17.605Z,424
2017-08-01T01:57:25.087Z,423
2017-08-01T01:58:32.571Z,424
2017-08-01T01:59:40.065Z,424
2017-08-01T02:00:47.861Z,426
2017-08-01T02:01:55.336Z,426
2017-08-01T02:03:02.818Z,428
2017-08-01T02:04:10.297Z,430
2017-08-01T02:05:17.778Z,429
2017-08-01T02:06:25.564Z,425
2017-08-01T02:07:33.041Z,416
2017-08-01T02:08:40.529Z,416
2017-08-01T02:09:48.013Z,417
2017-08-01T02:10:55.491Z,413
2017-08-01T02:12:03.280Z,407
2017-08-01T02:13:10.757Z,407
2017-08-01T02:14:18.242Z,408
2017-08-01T02:15:25.723Z,406
2017-08-01T02:16:33.205Z,408
2017-08-01T02:17:40.992Z,411
2017-08-01T02:18:48.474Z,409
2017-08-01T02:19:55.961Z,412
2017-08-01T02:21:03.438Z,414
2017-08-01T02:22:10.916Z,427
2017-08-01T02:23:18.923Z,440
2017-08-01T02:24:26.402Z,415
2017-08-01T02:25:33.572Z,424
2017-08-01T02:26:40.729Z,425
2017-08-01T02:27:48.206Z,430
2017-08-01T02:28:55.991Z,423
2017-08-01T02:30:03.475Z,426
2017-08-01T02:31:10.950Z,419
2017-08-01T02:32:18.436Z,414
2017-08-01T02:33:25.921Z,412
2017-08-01T02:34:33.710Z,409
2017-08-01T02:35:41.189Z,419
2017-08-01T02:36:48.670Z,413
2017-08-01T02:37:55.827Z,413
2017-08-01T02:39:02.981Z,405
2017-08-01T02:40:10.763Z,399
2017-08-01T02:41:18.242Z,426
2017-08-01T02:42:25.724Z,413
2017-08-01T02:43:33.213Z,408
2017-08-01T02:44:40.371Z,410
2017-08-01T02:45:47.827Z,409
2017-08-01T02:46:54.996Z,411
2017-08-01T02:48:02.482Z,412
2017-08-01T02:49:09.629Z,413
2017-08-01T02:50:17.112Z,415
2017-08-01T02:51:24.894Z,416
2017-08-01T02:52:32.383Z,417
2017-08-01T02:53:39.863Z,418
2017-08-01T02:54:47.344Z,419
2017-08-01T02:55:54.859Z,419
2017-08-01T02:57:02.642Z,419
2017-08-01T02:58:10.116Z,419
2017-08-01T02:59:17.603Z,419
2017-08-01T03:00:25.107Z,419
2017-08-01T03:01:32.590Z,420
2017-08-01T03:02:40.367Z,416
2017-08-01T03:03:48.117Z,397
2017-08-01T03:04:55.604Z,397
2017-08-01T03:06:03.092Z,394
2017-08-01T03:07:10.577Z,397
2017-08-01T03:08:18.365Z,397
2017-08-01T03:09:25.853Z,398
2017-08-01T03:10:33.008Z,399
2017-08-01T03:11:40.160Z,399
2017-08-01T03:12:47.653Z,399
2017-08-01T03:13:55.458Z,399
2017-08-01T03:15:02.939Z,399
2017-08-01T03:16:10.443Z,401
2017-08-01T03:17:17.928Z,400
2017-08-01T03:18:25.411Z,401
2017-08-01T03:19:33.189Z,401
2017-08-01T03:20:40.683Z,400
2017-08-01T03:21:48.170Z,401
2017-08-01T03:22:55.665Z,401
2017-08-01T03:24:02.815Z,402
2017-08-01T03:25:10.609Z,402
2017-08-01T03:26:18.091Z,403
2017-08-01T03:27:25.574Z,403
2017-08-01T03:28:33.064Z,403
2017-08-01T03:29:40.554Z,404
2017-08-01T03:30:48.335Z,405
2017-08-01T03:31:55.827Z,406
2017-08-01T03:33:03.302Z,406
2017-08-01T03:34:10.784Z,407
2017-08-01T03:35:18.270Z,407
2017-08-01T03:36:25.753Z,407
2017-08-01T03:37:33.241Z,408
2017-08-01T03:38:40.719Z,408
2017-08-01T03:39:48.432Z,408
2017-08-01T03:40:55.915Z,409
2017-08-01T03:42:03.695Z,409
2017-08-01T03:43:11.183Z,409
2017-08-01T03:44:18.347Z,410
2017-08-01T03:45:25.828Z,410
2017-08-01T03:46:33.304Z,411
2017-08-01T03:47:41.089Z,411
2017-08-01T03:48:48.571Z,412
2017-08-01T03:49:56.062Z,412
2017-08-01T03:51:03.544Z,413
2017-08-01T03:52:11.028Z,413
2017-08-01T03:53:18.541Z,413
2017-08-01T03:54:26.029Z,413
2017-08-01T03:55:33.519Z,413
2017-08-01T03:56:41.003Z,414
2017-08-01T03:57:48.507Z,414
2017-08-01T03:58:55.993Z,414
2017-08-01T04:00:03.475Z,415
2017-08-01T04:01:10.956Z,415
2017-08-01T04:02:18.101Z,415
2017-08-01T04:03:25.583Z,416
2017-08-01T04:04:33.368Z,416
2017-08-01T04:05:40.845Z,416
2017-08-01T04:06:48.321Z,416
2017-08-01T04:07:55.802Z,416
2017-08-01T04:09:03.254Z,416
2017-08-01T04:10:10.736Z,417
2017-08-01T04:11:18.227Z,417
2017-08-01T04:12:25.398Z,416
2017-08-01T04:13:32.881Z,417
2017-08-01T04:14:40.663Z,418
2017-08-01T04:15:48.151Z,418
2017-08-01T04:16:55.635Z,418
2017-08-01T04:18:03.133Z,418
2017-08-01T04:19:10.611Z,418
2017-08-01T04:20:18.408Z,418
2017-08-01T04:21:25.896Z,418
2017-08-01T04:22:33.375Z,418
2017-08-01T04:23:40.856Z,419
2017-08-01T04:24:48.354Z,418
2017-08-01T04:25:55.844Z,419
2017-08-01T04:27:03.326Z,419
2017-08-01T04:28:10.808Z,419
2017-08-01T04:29:18.303Z,419
2017-08-01T04:30:25.788Z,419
2017-08-01T04:31:33.236Z,420
2017-08-01T04:32:40.713Z,420
2017-08-01T04:33:48.194Z,420
2017-08-01T04:34:55.683Z,421
2017-08-01T04:36:02.827Z,421
2017-08-01T04:37:10.616Z,421
2017-08-01T04:38:18.096Z,422
2017-08-01T04:39:25.608Z,422
2017-08-01T04:40:33.079Z,421
2017-08-01T04:41:40.226Z,421
2017-08-01T04:42:47.689Z,422
2017-08-01T04:43:55.167Z,423
2017-08-01T04:45:02.649Z,423
2017-08-01T04:46:09.801Z,423
2017-08-01T04:47:17.280Z,424
2017-08-01T04:48:25.064Z,423
2017-08-01T04:49:32.540Z,423
2017-08-01T04:50:39.377Z,424
2017-08-01T04:51:46.857Z,423
2017-08-01T04:52:54.348Z,425
2017-08-01T04:54:02.131Z,425
2017-08-01T04:55:09.606Z,425
2017-08-01T04:56:17.086Z,425
2017-08-01T04:57:24.248Z,425
2017-08-01T04:58:31.752Z,425
2017-08-01T04:59:38.887Z,425
2017-08-01T05:00:46.368Z,425
2017-08-01T05:01:53.851Z,425
2017-08-01T05:03:01.330Z,425
2017-08-01T05:04:08.818Z,426
2017-08-01T05:05:16.307Z,425
2017-08-01T05:06:23.460Z,425
2017-08-01T05:07:30.612Z,425
2017-08-01T05:08:37.786Z,426
2017-08-01T05:09:45.275Z,427
2017-08-01T05:10:53.064Z,427
2017-08-01T05:12:00.543Z,428
2017-08-01T05:13:08.023Z,428
2017-08-01T05:14:15.167Z,428
2017-08-01T05:15:22.324Z,428
2017-08-01T05:16:30.003Z,428
2017-08-01T05:17:37.492Z,428
2017-08-01T05:18:44.640Z,427
2017-08-01T05:19:52.121Z,427
2017-08-01T05:20:58.946Z,427
2017-08-01T05:22:06.398Z,428
2017-08-01T05:23:13.886Z,427
2017-08-01T05:24:21.361Z,427
2017-08-01T05:25:28.859Z,427
2017-08-01T05:26:36.342Z,427
2017-08-01T05:27:43.497Z,427
2017-08-01T05:28:50.982Z,428
2017-08-01T05:29:58.465Z,428
2017-08-01T05:31:05.641Z,429
2017-08-01T05:32:13.479Z,429
2017-08-01T05:33:20.634Z,429
2017-08-01T05:34:28.132Z,429
2017-08-01T05:35:35.615Z,429
2017-08-01T05:36:43.117Z,429
2017-08-01T05:37:50.616Z,429
2017-08-01T05:38:58.098Z,429
2017-08-01T05:40:05.578Z,430
2017-08-01T05:41:13.055Z,429
2017-08-01T05:42:20.535Z,429
2017-08-01T05:43:28.363Z,430
2017-08-01T05:44:35.846Z,430
2017-08-01T05:45:43.330Z,431
2017-08-01T05:46:50.813Z,431
2017-08-01T05:47:58.212Z,431
2017-08-01T05:49:05.983Z,430
2017-08-01T05:50:13.461Z,431
2017-08-01T05:51:20.945Z,432
2017-08-01T05:52:28.425Z,432
2017-08-01T05:53:35.924Z,433
2017-08-01T05:54:43.757Z,433
2017-08-01T05:55:51.240Z,432
2017-08-01T05:56:58.722Z,432
2017-08-01T05:58:06.204Z,433
2017-08-01T05:59:13.688Z,433
2017-08-01T06:00:20.822Z,433
2017-08-01T06:01:28.313Z,433
2017-08-01T06:02:35.811Z,433
2017-08-01T06:03:43.299Z,433
2017-08-01T06:04:50.776Z,433
2017-08-01T06:05:58.561Z,433
2017-08-01T06:07:06.040Z,434
2017-08-01T06:08:13.543Z,434
2017-08-01T06:09:21.021Z,434
2017-08-01T06:10:28.498Z,435
2017-08-01T06:11:35.986Z,435
2017-08-01T06:12:43.139Z,435
2017-08-01T06:13:50.617Z,436
2017-08-01T06:14:58.096Z,435
2017-08-01T06:16:05.585Z,436
2017-08-01T06:17:13.037Z,436
2017-08-01T06:18:20.519Z,436
2017-08-01T06:19:27.998Z,436
2017-08-01T06:20:35.494Z,436
2017-08-01T06:21:42.655Z,436
2017-08-01T06:22:50.440Z,436
2017-08-01T06:23:57.921Z,435
2017-08-01T06:25:05.070Z,436
2017-08-01T06:26:12.568Z,436
2017-08-01T06:27:19.758Z,436
2017-08-01T06:28:27.549Z,437
2017-08-01T06:29:35.028Z,438
2017-08-01T06:30:42.186Z,438
2017-08-01T06:31:49.670Z,439
2017-08-01T06:32:57.152Z,438
2017-08-01T06:34:04.316Z,438
2017-08-01T06:35:11.798Z,438
2017-08-01T06:36:19.285Z,438
2017-08-01T06:37:26.781Z,437
2017-08-01T06:38:34.264Z,438
2017-08-01T06:39:42.047Z,438
2017-08-01T06:40:49.525Z,438
2017-08-01T06:41:57.002Z,438
2017-08-01T06:43:04.484Z,439
2017-08-01T06:44:11.970Z,439
2017-08-01T06:45:19.769Z,438
2017-08-01T06:46:27.254Z,439
2017-08-01T06:47:34.740Z,439
2017-08-01T06:48:41.892Z,439
2017-08-01T06:49:49.377Z,439
2017-08-01T06:50:56.856Z,439
2017-08-01T06:52:04.347Z,440
2017-08-01T06:53:11.827Z,440
2017-08-01T06:54:19.312Z,440
2017-08-01T06:55:26.468Z,440
2017-08-01T06:56:34.251Z,440
2017-08-01T06:57:41.732Z,440
2017-08-01T06:58:49.216Z,440
2017-08-01T06:59:56.705Z,440
2017-08-01T07:01:04.185Z,440
2017-08-01T07:02:11.639Z,441
2017-08-01T07:03:18.799Z,441
2017-08-01T07:04:26.277Z,441
2017-08-01T07:05:33.769Z,441
2017-08-01T07:06:41.254Z,441
2017-08-01T07:07:49.043Z,441
2017-08-01T07:08:56.544Z,441
2017-08-01T07:10:04.029Z,441
2017-08-01T07:11:11.514Z,441
2017-08-01T07:12:19.002Z,441
2017-08-01T07:13:26.481Z,441
2017-08-01T07:14:33.641Z,442
2017-08-01T07:15:41.126Z,441
2017-08-01T07:16:48.619Z,441
2017-08-01T07:17:56.107Z,442
2017-08-01T07:19:03.917Z,442
2017-08-01T07:20:11.396Z,443
2017-08-01T07:21:19.098Z,443
2017-08-01T07:22:26.594Z,443
2017-08-01T07:23:34.085Z,443
2017-08-01T07:24:41.873Z,442
2017-08-01T07:25:49.353Z,442
2017-08-01T07:26:56.517Z,443
2017-08-01T07:28:04.003Z,442
2017-08-01T07:29:11.490Z,443
2017-08-01T07:30:19.275Z,443
2017-08-01T07:31:26.431Z,443
2017-08-01T07:32:33.920Z,443
2017-08-01T07:33:41.080Z,443
2017-08-01T07:34:48.573Z,442
2017-08-01T07:35:56.367Z,442
2017-08-01T07:37:03.859Z,442
2017-08-01T07:38:11.351Z,441
2017-08-01T07:39:18.180Z,440
2017-08-01T07:40:25.664Z,440
2017-08-01T07:41:33.455Z,441
2017-08-01T07:42:40.946Z,442
2017-08-01T07:43:48.428Z,441
2017-08-01T07:44:55.919Z,442
2017-08-01T07:46:03.411Z,443
2017-08-01T07:47:11.201Z,443
2017-08-01T07:48:18.694Z,445
2017-08-01T07:49:26.183Z,444
2017-08-01T07:50:33.660Z,445
2017-08-01T07:51:41.147Z,446
2017-08-01T07:52:48.319Z,446
2017-08-01T07:53:55.829Z,446
2017-08-01T07:55:03.318Z,446
2017-08-01T07:56:10.803Z,446
2017-08-01T07:57:18.294Z,447
2017-08-01T07:58:26.082Z,447
2017-08-01T07:59:33.565Z,447
2017-08-01T08:00:41.048Z,448
2017-08-01T08:01:48.548Z,448
2017-08-01T08:02:56.036Z,448
2017-08-01T08:04:03.824Z,448
2017-08-01T08:05:11.311Z,448
2017-08-01T08:06:18.804Z,448
2017-08-01T08:07:26.292Z,448
2017-08-01T08:08:33.778Z,448
2017-08-01T08:09:41.573Z,448
2017-08-01T08:10:49.059Z,448
2017-08-01T08:11:56.547Z,447
2017-08-01T08:13:03.704Z,447
2017-08-01T08:14:11.191Z,448
2017-08-01T08:15:18.678Z,448
2017-08-01T08:16:26.170Z,448
2017-08-01T08:17:33.655Z,448
2017-08-01T08:18:40.813Z,448
2017-08-01T08:19:48.597Z,448
2017-08-01T08:20:56.097Z,449
2017-08-01T08:22:03.250Z,449
2017-08-01T08:23:10.741Z,450
2017-08-01T08:24:18.228Z,450
2017-08-01T08:25:26.017Z,449
2017-08-01T08:26:33.514Z,450
2017-08-01T08:27:40.998Z,448
2017-08-01T08:28:48.489Z,447
2017-08-01T08:29:55.985Z,446
2017-08-01T08:31:03.771Z,446
2017-08-01T08:32:11.263Z,446
2017-08-01T08:33:18.750Z,446
2017-08-01T08:34:25.926Z,446
2017-08-01T08:35:33.418Z,444
2017-08-01T08:36:41.212Z,456
2017-08-01T08:37:48.379Z,457
2017-08-01T08:38:55.864Z,458
2017-08-01T08:40:03.352Z,460
2017-08-01T08:41:10.514Z,461
2017-08-01T08:42:17.999Z,460
2017-08-01T08:43:25.488Z,460
2017-08-01T08:44:32.975Z,460
2017-08-01T08:45:40.468Z,460
2017-08-01T08:46:47.952Z,460
2017-08-01T08:47:55.744Z,461
2017-08-01T08:49:02.904Z,461
2017-08-01T08:50:09.735Z,463
2017-08-01T08:51:17.227Z,461
2017-08-01T08:52:24.725Z,462
2017-08-01T08:53:32.194Z,460
2017-08-01T08:54:39.678Z,459
2017-08-01T08:55:47.162Z,458
2017-08-01T08:56:54.666Z,458
2017-08-01T08:58:02.154Z,457
2017-08-01T08:59:09.958Z,458
2017-08-01T09:00:17.444Z,459
2017-08-01T09:01:24.933Z,460
2017-08-01T09:02:32.423Z,461
2017-08-01T09:03:39.910Z,461
2017-08-01T09:04:47.702Z,461
2017-08-01T09:05:54.865Z,462
2017-08-01T09:07:02.352Z,462
2017-08-01T09:08:09.844Z,460
2017-08-01T09:09:17.337Z,460
2017-08-01T09:10:25.125Z,461
2017-08-01T09:11:32.620Z,462
2017-08-01T09:12:40.110Z,462
2017-08-01T09:13:47.600Z,462
2017-08-01T09:14:55.092Z,463
2017-08-01T09:16:02.653Z,462
2017-08-01T09:17:10.157Z,461
2017-08-01T09:18:17.649Z,460
2017-08-01T09:19:25.141Z,460
2017-08-01T09:20:32.627Z,461
2017-08-01T09:21:40.119Z,462
2017-08-01T09:22:47.609Z,463
2017-08-01T09:23:55.100Z,463
2017-08-01T09:25:02.594Z,463
2017-08-01T09:26:10.083Z,461
2017-08-01T09:27:17.867Z,460
2017-08-01T09:28:25.360Z,459
2017-08-01T09:29:32.847Z,461
2017-08-01T09:30:40.340Z,462
2017-08-01T09:31:47.830Z,460
2017-08-01T09:32:55.617Z,459
2017-08-01T09:34:03.109Z,460
2017-08-01T09:35:10.601Z,459
2017-08-01T09:36:19.060Z,460
2017-08-01T09:37:26.222Z,459
2017-08-01T09:38:33.810Z,458
2017-08-01T09:39:40.989Z,458
2017-08-01T09:40:48.478Z,458
2017-08-01T09:41:55.966Z,457
2017-08-01T09:43:03.461Z,457
2017-08-01T09:44:11.255Z,455
2017-08-01T09:45:18.750Z,455
2017-08-01T09:46:26.239Z,456
2017-08-01T09:47:33.737Z,458
2017-08-01T09:48:41.227Z,460
2017-08-01T09:49:48.823Z,463
2017-08-01T09:50:56.317Z,463
2017-08-01T09:52:03.485Z,461
2017-08-01T09:53:10.648Z,460
2017-08-01T09:54:18.160Z,463
2017-08-01T09:55:25.905Z,464
2017-08-01T09:56:33.409Z,467
2017-08-01T09:57:40.908Z,469
2017-08-01T09:58:48.395Z,469
2017-08-01T09:59:55.888Z,469
2017-08-01T10:01:03.377Z,469
2017-08-01T10:02:10.873Z,470
2017-08-01T10:03:18.365Z,468
2017-08-01T10:04:25.529Z,465
2017-08-01T10:05:33.025Z,464
2017-08-01T10:06:40.622Z,465
2017-08-01T10:07:48.108Z,465
2017-08-01T10:08:55.267Z,464
2017-08-01T10:10:02.754Z,464
2017-08-01T10:11:10.244Z,462
2017-08-01T10:12:17.840Z,463
2017-08-01T10:13:25.340Z,465
2017-08-01T10:14:32.842Z,465
2017-08-01T10:15:40.346Z,464
2017-08-01T10:16:47.833Z,464
2017-08-01T10:17:55.426Z,462
2017-08-01T10:19:02.917Z,463
2017-08-01T10:20:10.410Z,462
2017-08-01T10:21:17.902Z,462
2017-08-01T10:22:25.392Z,464
2017-08-01T10:23:32.889Z,461
2017-08-01T10:24:40.385Z,462
2017-08-01T10:25:47.872Z,460
2017-08-01T10:26:55.366Z,456
2017-08-01T10:28:03.160Z,457
2017-08-01T10:29:10.648Z,459
2017-08-01T10:30:18.141Z,463
2017-08-01T10:31:25.632Z,467
2017-08-01T10:32:33.129Z,470
2017-08-01T10:33:40.060Z,470
2017-08-01T10:34:47.225Z,469
2017-08-01T10:35:54.726Z,470
2017-08-01T10:37:02.216Z,467
2017-08-01T10:38:09.705Z,467
2017-08-01T10:39:17.297Z,464
2017-08-01T10:40:24.787Z,458
2017-08-01T10:41:32.280Z,456
2017-08-01T10:42:39.443Z,454
2017-08-01T10:43:46.939Z,453
2017-08-01T10:44:54.538Z,451
2017-08-01T10:46:02.032Z,458
2017-08-01T10:47:09.521Z,460
2017-08-01T10:48:17.017Z,465
2017-08-01T10:49:24.173Z,472
2017-08-01T10:50:31.346Z,476
2017-08-01T10:51:38.515Z,476
2017-08-01T10:52:46.008Z,474
2017-08-01T10:53:53.501Z,473
2017-08-01T10:55:01.243Z,475
2017-08-01T10:56:08.742Z,467
2017-08-01T10:57:15.899Z,470
2017-08-01T10:58:23.389Z,467
2017-08-01T10:59:30.884Z,466
2017-08-01T11:00:38.675Z,464
2017-08-01T11:01:46.174Z,465
2017-08-01T11:02:53.668Z,463
2017-08-01T11:04:01.166Z,463
2017-08-01T11:05:08.327Z,466
2017-08-01T11:06:15.927Z,472
2017-08-01T11:07:23.423Z,472
2017-08-01T11:08:30.609Z,475
2017-08-01T11:09:38.101Z,476
2017-08-01T11:10:45.590Z,476
2017-08-01T11:11:52.866Z,473
2017-08-01T11:13:00.370Z,482
2017-08-01T11:14:07.865Z,482
2017-08-01T11:15:15.365Z,487
2017-08-01T11:16:22.533Z,489
2017-08-01T11:17:30.021Z,492
2017-08-01T11:18:37.516Z,497
2017-08-01T11:19:45.021Z,498
2017-08-01T11:20:52.510Z,500
2017-08-01T11:22:00.005Z,500
2017-08-01T11:23:07.482Z,498
2017-08-01T11:24:14.971Z,487
2017-08-01T11:25:22.473Z,481
2017-08-01T11:26:29.971Z,480
2017-08-01T11:27:37.457Z,487
2017-08-01T11:28:44.876Z,490
2017-08-01T11:29:52.365Z,490
2017-08-01T11:30:59.856Z,493
2017-08-01T11:32:07.376Z,488
2017-08-01T11:33:14.872Z,485
2017-08-01T11:34:22.364Z,483
2017-08-01T11:35:29.527Z,481
2017-08-01T11:36:37.032Z,480
2017-08-01T11:37:44.191Z,484
2017-08-01T11:38:51.684Z,493
2017-08-01T11:39:59.425Z,498
2017-08-01T11:41:06.921Z,500
2017-08-01T11:42:14.405Z,495
2017-08-01T11:43:21.904Z,492
2017-08-01T11:44:29.395Z,491
2017-08-01T11:45:36.994Z,484
2017-08-01T11:46:44.482Z,487
2017-08-01T11:47:51.973Z,492
2017-08-01T11:50:21.387Z,490
2017-08-01T11:51:29.181Z,487
2017-08-01T11:52:36.680Z,490
2017-08-01T11:53:44.170Z,488
2017-08-01T11:54:51.663Z,489
2017-08-01T11:55:59.156Z,488
2017-08-01T11:57:07.003Z,490
2017-08-01T11:58:14.493Z,490
2017-08-01T11:59:21.991Z,491
2017-08-01T12:00:28.830Z,496
2017-08-01T12:01:36.326Z,499
2017-08-01T12:02:44.122Z,506
2017-08-01T12:03:51.648Z,506
2017-08-01T12:04:58.815Z,501
2017-08-01T12:06:06.308Z,502
2017-08-01T12:07:13.800Z,502
2017-08-01T12:08:21.648Z,502
2017-08-01T12:09:29.154Z,502
2017-08-01T12:10:36.644Z,510
2017-08-01T12:11:44.149Z,516
2017-08-01T12:12:51.638Z,520
2017-08-01T12:13:59.486Z,519
2017-08-01T12:15:06.976Z,523
2017-08-01T12:16:14.132Z,514
2017-08-01T12:17:21.630Z,516
2017-08-01T12:18:28.796Z,514
2017-08-01T12:19:36.301Z,509
2017-08-01T12:20:43.797Z,512
2017-08-01T12:21:51.295Z,515
2017-08-01T12:22:58.792Z,513
2017-08-01T12:24:06.213Z,523
2017-08-01T12:25:13.715Z,528
2017-08-01T12:26:20.891Z,526
2017-08-01T12:27:28.389Z,527
2017-08-01T12:28:35.885Z,526
2017-08-01T12:29:43.678Z,532
2017-08-01T12:30:50.515Z,535
2017-08-01T12:31:58.257Z,537
2017-08-01T12:33:05.750Z,539
2017-08-01T12:34:13.255Z,541
2017-08-01T12:35:21.050Z,536
2017-08-01T12:36:28.539Z,538
2017-08-01T12:37:35.704Z,537
2017-08-01T12:38:43.195Z,539
2017-08-01T12:39:50.694Z,540
2017-08-01T12:40:58.190Z,541
2017-08-01T12:42:05.690Z,543
2017-08-01T12:43:13.216Z,543
2017-08-01T12:44:20.816Z,546
2017-08-01T12:45:28.315Z,547
2017-08-01T12:46:35.813Z,546
2017-08-01T12:47:43.304Z,548
2017-08-01T12:48:50.475Z,548
2017-08-01T12:49:58.070Z,549
2017-08-01T12:51:05.569Z,549
2017-08-01T12:52:13.086Z,553
2017-08-01T12:53:20.574Z,552
2017-08-01T12:54:28.073Z,554
2017-08-01T12:55:35.666Z,557
2017-08-01T12:56:43.157Z,553
2017-08-01T12:57:50.322Z,550
2017-08-01T12:58:57.821Z,544
2017-08-01T13:00:04.990Z,537
2017-08-01T13:01:12.483Z,537
2017-08-01T13:02:19.966Z,539
2017-08-01T13:03:27.463Z,536
2017-08-01T13:04:34.958Z,538
2017-08-01T13:05:42.547Z,537
2017-08-01T13:06:50.042Z,538
2017-08-01T13:07:57.541Z,541
2017-08-01T13:09:05.072Z,542
2017-08-01T13:10:12.591Z,545
2017-08-01T13:11:20.185Z,553
2017-08-01T13:12:27.348Z,556
2017-08-01T13:13:34.853Z,554
2017-08-01T13:14:42.353Z,550
2017-08-01T13:15:49.847Z,547
2017-08-01T13:16:57.270Z,547
2017-08-01T13:18:04.767Z,550
2017-08-01T13:19:12.261Z,554
2017-08-01T13:20:19.760Z,558
2017-08-01T13:21:27.270Z,561
2017-08-01T13:22:35.012Z,561
2017-08-01T13:23:42.501Z,563
2017-08-01T13:24:50.001Z,584
2017-08-01T13:25:57.192Z,592
2017-08-01T13:27:04.688Z,589
2017-08-01T13:28:12.192Z,591
2017-08-01T13:29:19.685Z,596
2017-08-01T13:30:27.190Z,569
2017-08-01T13:31:34.681Z,565
2017-08-01T13:32:42.329Z,567
2017-08-01T13:33:49.818Z,568
2017-08-01T13:34:57.313Z,568
2017-08-01T13:36:04.476Z,571
2017-08-01T13:37:11.970Z,568
2017-08-01T13:38:19.582Z,570
2017-08-01T13:39:27.077Z,564
2017-08-01T13:40:34.576Z,562
2017-08-01T13:41:41.744Z,561
2017-08-01T13:42:48.920Z,562
2017-08-01T13:43:56.712Z,560
2017-08-01T13:45:03.875Z,560
2017-08-01T13:46:11.383Z,565
2017-08-01T13:47:18.571Z,564
2017-08-01T13:48:26.073Z,562
2017-08-01T13:49:33.554Z,566
2017-08-01T13:50:41.066Z,568
2017-08-01T13:51:48.556Z,576
2017-08-01T13:52:56.054Z,576
2017-08-01T13:54:03.539Z,574
2017-08-01T13:55:11.030Z,575
2017-08-01T13:56:18.519Z,574
2017-08-01T13:57:26.037Z,572
2017-08-01T13:58:33.532Z,568
2017-08-01T13:59:41.025Z,565
2017-08-01T14:00:48.488Z,566
2017-08-01T14:01:55.975Z,573
2017-08-01T14:03:03.485Z,575
2017-08-01T14:04:10.334Z,575
2017-08-01T14:05:17.509Z,573
2017-08-01T14:06:25.258Z,571
2017-08-01T14:07:32.758Z,571
2017-08-01T14:08:40.249Z,576
2017-08-01T14:09:47.752Z,585
2017-08-01T14:10:55.247Z,583
2017-08-01T14:12:02.841Z,584
2017-08-01T14:13:10.008Z,588
2017-08-01T14:14:17.505Z,589
2017-08-01T14:15:24.351Z,587
2017-08-01T14:16:31.847Z,584
2017-08-01T14:17:39.586Z,584
2017-08-01T14:18:47.091Z,589
2017-08-01T14:19:54.593Z,590
2017-08-01T14:21:01.757Z,590
2017-08-01T14:22:09.252Z,585
2017-08-01T14:23:16.999Z,584
2017-08-01T14:24:24.486Z,587
2017-08-01T14:25:31.643Z,587
2017-08-01T14:26:39.138Z,592
2017-08-01T14:27:46.637Z,590
2017-08-01T14:28:54.388Z,595
2017-08-01T14:30:01.888Z,596
2017-08-01T14:31:09.013Z,599
2017-08-01T14:32:16.520Z,601
2017-08-01T14:33:24.011Z,600
2017-08-01T14:34:31.511Z,599
2017-08-01T14:35:38.674Z,599
2017-08-01T14:36:45.840Z,598
2017-08-01T14:37:53.335Z,594
2017-08-01T14:39:00.828Z,595
2017-08-01T14:40:08.428Z,589
2017-08-01T14:41:15.917Z,590
2017-08-01T14:42:23.415Z,584
2017-08-01T14:43:30.909Z,583
2017-08-01T14:44:38.409Z,587
2017-08-01T14:45:46.163Z,588
2017-08-01T14:46:53.660Z,590
2017-08-01T14:48:01.162Z,586
2017-08-01T14:49:08.651Z,592
2017-08-01T14:50:16.148Z,598
2017-08-01T14:51:23.615Z,601
2017-08-01T14:52:31.110Z,602
2017-08-01T14:53:38.614Z,601
2017-08-01T14:54:45.785Z,601
2017-08-01T14:55:53.280Z,602
2017-08-01T14:57:00.775Z,603
2017-08-01T14:58:08.281Z,603
2017-08-01T14:59:16.358Z,604
2017-08-01T15:00:23.525Z,605
2017-08-01T15:01:31.125Z,606
2017-08-01T15:02:38.619Z,604
2017-08-01T15:03:46.116Z,605
2017-08-01T15:04:53.614Z,601
2017-08-01T15:06:01.111Z,600
2017-08-01T15:07:08.844Z,600
2017-08-01T15:08:16.359Z,602
2017-08-01T15:09:23.849Z,604
2017-08-01T15:10:31.576Z,605
2017-08-01T15:11:39.066Z,606
2017-08-01T15:12:46.595Z,607
2017-08-01T15:13:53.755Z,606
2017-08-01T15:15:01.279Z,606
2017-08-01T15:16:09.005Z,605
2017-08-01T15:17:16.498Z,606
2017-08-01T15:18:24.364Z,608
2017-08-01T15:19:31.858Z,608
2017-08-01T15:20:39.350Z,608
2017-08-01T15:21:46.843Z,609
2017-08-01T15:22:54.035Z,604
2017-08-01T15:24:01.531Z,609
2017-08-01T15:25:09.025Z,610
2017-08-01T15:26:16.821Z,610
2017-08-01T15:27:24.193Z,610
2017-08-01T15:28:31.687Z,609
2017-08-01T15:29:38.869Z,610
2017-08-01T15:30:46.628Z,610